KBKE/BKE METAR and TAF weather

Enter ICAO airport designator
Station Type Date Time Source
KBKE METAR 2021/03/08 15:53 UTC NOAA

KBKE 081553Z AUTO 01003KT 10SM OVC055 02/M04 A2995 RMK AO2 SLP156 T00221044


Station Type Date Time Source
KBKE Decoded METAR 2021/03/08 15:53 UTC NOAA

BAKER MUNICIPAL AIRPORT, OR, United States (KBKE) 44-50N 117-49W 1024M
Mar 08, 2021 - 10:53 AM EST / 2021.03.08 1553 UTC
Wind: from the N (010 degrees) at 3 MPH (3 KT):0
Visibility: 10 mile(s):0
Sky conditions: overcast
Temperature: 36.0 F (2.2 C)
Dew Point: 24.1 F (-4.4 C)
Relative Humidity: 61%
Pressure (altimeter): 29.95 in. Hg (1014 hPa)
ob: KBKE 081553Z AUTO 01003KT 10SM OVC055 02/M04 A2995 RMK AO2 SLP156 T00221044
cycle: 16

Station Type Date Time Source
KBKE TAF 2021/03/08 12:22 UTC NOAA

TAF KBKE 081120Z 0812/0912 26007KT P6SM VCSH SCT025 BKN050
FM081600 31008KT 3SM -SN BR OVC020
FM082100 VRB06KT 5SM -SHSN BKN020
FM090100 29005KT P6SM VCSH BKN080

Example: see airport list